Accedi per prenotare

Caricamento...

Situazione Metar e Taf aeroporto Pisa - Effemeridi Aeroporto Lucca

[Source: ADDS]
METAR
LIRP 210445Z 05003KT CAVOK 10/10 Q1023 NOSIG =
LIRP 202300Z 2100/2124 12007KT CAVOK PROB40 TEMPO 2100/2106 3000 BR SCT015 BECMG 2106/2108 9999 BKN030
TAF
LIRP 202300Z 2100/2124 12007KT CAVOK PROB40 TEMPO 2100/2106 3000 BR SCT015 BECMG 2106/2108 9999 BKN030 =
SR / SS: 05:41 / 16:27 UTC (Effemeridi LIQL 2020-10-21)